Time;durP1;ratioP1;P1;durP2;ratioP2;P2;SDS_P1;SDS_P2;PMS_P1;PMS_P2;Temp;Humidity;BMP_temperature;BMP_pressure;BME280_temperature;BME280_humidity;BME280_pressure;Samples;Min_cycle;Max_cycle;Signal;HPM_P1;HPM_P2
2023/04/25 00:00:15;;;;;;;1.60;1.30;;;6.80;98.20;;;;;;5028820;27;20487;-76
2023/04/25 00:02:42;;;;;;;1.60;1.43;;;6.80;98.20;;;;;;5098280;27;20483;-75
2023/04/25 00:05:10;;;;;;;1.60;1.40;;;6.80;98.20;;;;;;5033124;27;20468;-75
2023/04/25 00:07:37;;;;;;;1.50;1.30;;;6.70;98.20;;;;;;5023312;27;20675;-76
2023/04/25 00:10:04;;;;;;;1.57;1.30;;;6.70;98.20;;;;;;5030952;28;20479;-76
2023/04/25 00:12:33;;;;;;;1.50;1.23;;;6.70;98.20;;;;;;5027877;28;20482;-76
2023/04/25 00:15:00;;;;;;;1.50;1.20;;;6.70;98.20;;;;;;5035996;27;20491;-76
2023/04/25 00:17:26;;;;;;;1.60;1.50;;;6.70;98.20;;;;;;5088206;27;20624;-76
2023/04/25 00:19:53;;;;;;;1.60;1.40;;;6.60;98.20;;;;;;5037545;27;20978;-77
2023/04/25 00:22:22;;;;;;;1.60;1.43;;;6.60;98.20;;;;;;5080355;27;20490;-74
2023/04/25 00:24:48;;;;;;;1.60;1.30;;;6.60;98.20;;;;;;5049211;27;20459;-77
2023/04/25 00:27:15;;;;;;;1.50;1.30;;;6.60;98.20;;;;;;5028282;27;20502;-77
2023/04/25 00:29:43;;;;;;;1.60;1.40;;;6.50;98.20;;;;;;5035133;27;20995;-75
2023/04/25 00:32:10;;;;;;;1.57;1.40;;;6.50;98.20;;;;;;5077083;27;20529;-76
2023/04/25 00:34:37;;;;;;;1.50;1.30;;;6.50;98.20;;;;;;5049339;27;20491;-76
2023/04/25 00:37:04;;;;;;;1.60;1.30;;;6.50;98.20;;;;;;5098911;27;20482;-77
2023/04/25 00:39:31;;;;;;;1.60;1.40;;;6.50;98.20;;;;;;5058616;27;20713;-76
2023/04/25 00:41:59;;;;;;;1.57;1.30;;;6.50;98.20;;;;;;5065515;27;20479;-75
2023/04/25 00:44:27;;;;;;;1.50;1.30;;;6.50;98.20;;;;;;5061019;27;20865;-76
2023/04/25 00:46:56;;;;;;;1.60;1.50;;;6.50;98.20;;;;;;5061962;27;20583;-75
2023/04/25 00:49:23;;;;;;;1.60;1.40;;;6.50;98.20;;;;;;5064438;27;20487;-75
2023/04/25 00:51:50;;;;;;;1.57;1.40;;;6.60;98.20;;;;;;5062441;27;20490;-76
2023/04/25 00:54:17;;;;;;;1.60;1.43;;;6.60;98.20;;;;;;5070127;27;20467;-76
2023/04/25 00:56:45;;;;;;;1.57;1.30;;;6.70;98.20;;;;;;5022725;28;20486;-77
2023/04/25 00:59:12;;;;;;;1.60;1.40;;;6.70;98.20;;;;;;5035070;28;20492;-76
2023/04/25 01:01:40;;;;;;;1.50;1.30;;;6.80;98.20;;;;;;5051178;27;20480;-77
2023/04/25 01:04:08;;;;;;;1.53;1.30;;;6.80;98.20;;;;;;5074998;27;20489;-76
2023/04/25 01:06:36;;;;;;;1.50;1.20;;;6.80;98.20;;;;;;5048510;27;20535;-76
2023/04/25 01:09:04;;;;;;;1.50;1.20;;;6.90;98.20;;;;;;5077865;27;20495;-76
2023/04/25 01:11:31;;;;;;;1.60;1.30;;;6.90;98.20;;;;;;5022152;28;20566;-77
2023/04/25 01:13:58;;;;;;;1.50;1.30;;;7.00;98.20;;;;;;5037217;28;20463;-76
2023/04/25 01:16:26;;;;;;;1.50;1.30;;;7.00;98.20;;;;;;5018970;28;20486;-76
2023/04/25 01:18:53;;;;;;;1.50;1.30;;;7.00;98.20;;;;;;5045803;27;20483;-77
2023/04/25 01:21:21;;;;;;;1.50;1.20;;;7.10;98.20;;;;;;5052561;27;20490;-76
2023/04/25 01:23:49;;;;;;;1.57;1.30;;;7.10;98.20;;;;;;5089308;27;20524;-77
2023/04/25 01:26:16;;;;;;;1.60;1.30;;;7.10;98.20;;;;;;5055395;27;20483;-76
2023/04/25 01:28:43;;;;;;;1.50;1.30;;;7.20;98.20;;;;;;5084548;27;20494;-76
2023/04/25 01:31:10;;;;;;;1.50;1.20;;;7.20;98.20;;;;;;5026719;28;20487;-76
2023/04/25 01:33:37;;;;;;;1.60;1.30;;;7.20;98.20;;;;;;5090756;27;20454;-76
2023/04/25 01:36:05;;;;;;;1.50;1.20;;;7.20;98.20;;;;;;5082395;27;20451;-75
2023/04/25 01:38:33;;;;;;;1.60;1.33;;;7.20;98.20;;;;;;5048636;28;20459;-76
2023/04/25 01:41:00;;;;;;;1.57;1.33;;;7.20;98.20;;;;;;5079876;27;20991;-76
2023/04/25 01:43:27;;;;;;;1.50;1.30;;;7.20;98.20;;;;;;5049979;27;20467;-76
2023/04/25 01:45:54;;;;;;;1.50;1.20;;;7.30;98.20;;;;;;5016892;27;20471;-76
2023/04/25 01:48:21;;;;;;;1.50;1.20;;;7.20;98.20;;;;;;5085752;27;20462;-76
2023/04/25 01:50:47;;;;;;;1.50;1.20;;;7.20;98.20;;;;;;5051126;27;20469;-75
2023/04/25 01:53:15;;;;;;;1.50;1.20;;;7.20;98.20;;;;;;5031091;27;20767;-76
2023/04/25 01:55:43;;;;;;;1.50;1.20;;;7.20;98.20;;;;;;5015487;28;20502;-76
2023/04/25 01:58:12;;;;;;;1.50;1.20;;;7.20;98.20;;;;;;5007496;28;20498;-76
2023/04/25 02:00:40;;;;;;;1.50;1.20;;;7.20;98.20;;;;;;5027042;28;20552;-76
2023/04/25 02:03:08;;;;;;;1.50;1.27;;;7.30;98.20;;;;;;5012502;28;20475;-76
2023/04/25 02:05:36;;;;;;;1.50;1.30;;;7.30;98.20;;;;;;5034159;28;20463;-77
2023/04/25 02:08:04;;;;;;;1.60;1.37;;;7.30;98.20;;;;;;5035704;28;20479;-78
2023/04/25 02:10:30;;;;;;;1.50;1.30;;;7.30;98.20;;;;;;5036763;28;20496;-77
2023/04/25 02:12:59;;;;;;;1.50;1.30;;;7.30;98.20;;;;;;5025378;28;20482;-77
2023/04/25 02:15:26;;;;;;;1.50;1.30;;;7.20;98.20;;;;;;5032642;28;20452;-80
2023/04/25 02:17:53;;;;;;;1.50;1.20;;;7.20;98.20;;;;;;5023912;28;20486;-77
2023/04/25 02:20:21;;;;;;;1.50;1.20;;;7.20;98.20;;;;;;5033816;28;20487;-79
2023/04/25 02:22:48;;;;;;;1.57;1.20;;;7.20;98.20;;;;;;5019696;28;20733;-76
2023/04/25 02:25:15;;;;;;;1.50;1.30;;;7.20;98.20;;;;;;5031774;28;20535;-78
2023/04/25 02:27:42;;;;;;;1.50;1.20;;;7.30;98.20;;;;;;5023588;28;20506;-78
2023/04/25 02:30:11;;;;;;;1.50;1.20;;;7.20;98.20;;;;;;5029247;28;20555;-77
2023/04/25 02:32:39;;;;;;;1.50;1.20;;;7.30;98.20;;;;;;5023610;28;20501;-77
2023/04/25 02:35:07;;;;;;;1.50;1.30;;;7.30;98.20;;;;;;5049308;28;20488;-77
2023/04/25 02:37:35;;;;;;;1.50;1.20;;;7.30;98.20;;;;;;5017189;28;20488;-75
2023/04/25 02:40:03;;;;;;;1.50;1.30;;;7.30;98.20;;;;;;5037099;28;20487;-78
2023/04/25 02:42:31;;;;;;;1.50;1.20;;;7.30;98.20;;;;;;5026572;28;20545;-77
2023/04/25 02:44:57;;;;;;;1.50;1.20;;;7.30;98.20;;;;;;5033188;28;20458;-78
2023/04/25 02:47:26;;;;;;;1.50;1.30;;;7.30;98.20;;;;;;5023731;28;20512;-80
2023/04/25 02:49:52;;;;;;;1.50;1.17;;;7.40;98.20;;;;;;5034986;28;20487;-80
2023/04/25 02:52:21;;;;;;;1.50;1.20;;;7.40;98.20;;;;;;5027332;28;20572;-79
2023/04/25 02:54:48;;;;;;;1.50;1.20;;;7.40;98.20;;;;;;5035495;28;20459;-78
2023/04/25 02:57:14;;;;;;;1.50;1.37;;;7.40;98.20;;;;;;5052285;28;21036;-78
2023/04/25 02:59:41;;;;;;;1.50;1.20;;;7.40;98.20;;;;;;5040889;28;20506;-77
2023/04/25 03:02:08;;;;;;;1.50;1.20;;;7.40;98.20;;;;;;5031461;28;20583;-79
2023/04/25 03:04:37;;;;;;;1.50;1.20;;;7.50;98.20;;;;;;5039228;28;20456;-77
2023/04/25 03:07:03;;;;;;;1.50;1.30;;;7.50;98.20;;;;;;5043929;28;20489;-77
2023/04/25 03:09:30;;;;;;;1.50;1.20;;;7.50;98.20;;;;;;5041187;28;20551;-77
2023/04/25 03:11:57;;;;;;;1.50;1.17;;;7.50;98.20;;;;;;5029115;28;20486;-78
2023/04/25 03:14:24;;;;;;;1.50;1.20;;;7.50;98.20;;;;;;5035616;28;20469;-75
2023/04/25 03:16:51;;;;;;;1.50;1.20;;;7.50;98.20;;;;;;5033319;28;20482;-80
2023/04/25 03:19:18;;;;;;;1.50;1.20;;;7.50;98.20;;;;;;5032274;28;20918;-79
2023/04/25 03:21:46;;;;;;;1.50;1.20;;;7.50;98.20;;;;;;5025607;28;20470;-75
2023/04/25 03:24:13;;;;;;;1.50;1.30;;;7.50;98.20;;;;;;5029805;28;20456;-77
2023/04/25 03:26:40;;;;;;;1.50;1.30;;;7.50;98.20;;;;;;5041923;28;20486;-76
2023/04/25 03:29:07;;;;;;;1.50;1.20;;;7.50;98.20;;;;;;5031312;28;20519;-76
2023/04/25 03:31:34;;;;;;;1.50;1.20;;;7.50;98.20;;;;;;5030158;28;20479;-79
2023/04/25 03:34:00;;;;;;;1.50;1.30;;;7.50;98.20;;;;;;5036194;28;20522;-76
2023/04/25 03:36:27;;;;;;;1.50;1.30;;;7.60;98.20;;;;;;5049855;27;20479;-77
2023/04/25 03:38:56;;;;;;;1.50;1.30;;;7.60;98.20;;;;;;5080550;27;20483;-82
2023/04/25 03:41:23;;;;;;;1.50;1.20;;;7.50;98.20;;;;;;5028475;28;20562;-75
2023/04/25 03:43:49;;;;;;;1.50;1.30;;;7.50;98.20;;;;;;5033555;28;20463;-77
2023/04/25 03:46:16;;;;;;;1.50;1.30;;;7.50;98.20;;;;;;5045080;28;20475;-75
2023/04/25 03:48:43;;;;;;;1.50;1.20;;;7.50;98.20;;;;;;5042558;28;20530;-76
2023/04/25 03:51:10;;;;;;;1.53;1.30;;;7.50;98.20;;;;;;5034502;28;20494;-76
2023/04/25 03:53:37;;;;;;;1.50;1.20;;;7.50;98.20;;;;;;5041421;28;20472;-75
2023/04/25 03:56:06;;;;;;;1.50;1.40;;;7.50;98.20;;;;;;5027381;28;20493;-75
2023/04/25 03:58:32;;;;;;;1.50;1.20;;;7.50;98.20;;;;;;5040090;28;20459;-75
2023/04/25 04:00:59;;;;;;;1.50;1.20;;;7.50;98.20;;;;;;5024043;28;20489;-75
2023/04/25 04:03:26;;;;;;;1.50;1.10;;;7.50;98.20;;;;;;5044273;27;20982;-74
2023/04/25 04:05:53;;;;;;;1.50;1.30;;;7.50;98.20;;;;;;5021554;28;20530;-75
2023/04/25 04:08:20;;;;;;;1.50;1.20;;;7.50;98.20;;;;;;5044711;27;20558;-74
2023/04/25 04:10:46;;;;;;;1.50;1.20;;;7.50;98.20;;;;;;5025326;28;20464;-76
2023/04/25 04:13:14;;;;;;;1.50;1.20;;;7.50;98.20;;;;;;5122746;27;20462;-75
2023/04/25 04:15:41;;;;;;;1.50;1.20;;;7.50;98.20;;;;;;5061542;22;20504;-80
2023/04/25 04:18:08;;;;;;;1.50;1.20;;;7.50;98.20;;;;;;5098324;28;20495;-81
2023/04/25 04:20:35;;;;;;;1.50;1.10;;;7.50;98.20;;;;;;5026919;28;20499;-81
2023/04/25 04:23:02;;;;;;;1.50;1.13;;;7.50;98.20;;;;;;5029088;28;20476;-81
2023/04/25 04:25:29;;;;;;;1.50;1.20;;;7.50;98.20;;;;;;5070352;28;20505;-81
2023/04/25 04:27:57;;;;;;;1.60;1.30;;;7.50;98.20;;;;;;5088319;28;20477;-80
2023/04/25 04:30:25;;;;;;;1.50;1.30;;;7.50;98.20;;;;;;5097158;28;20452;-81
2023/04/25 04:32:53;;;;;;;1.50;1.30;;;7.50;98.20;;;;;;5075738;28;20495;-80
2023/04/25 04:35:20;;;;;;;1.50;1.30;;;7.50;98.20;;;;;;5081428;28;20484;-81
2023/04/25 04:37:47;;;;;;;1.50;1.30;;;7.50;98.20;;;;;;5070530;28;20797;-81
2023/04/25 04:40:15;;;;;;;1.50;1.10;;;7.50;98.20;;;;;;5082790;28;20977;-80
2023/04/25 04:42:42;;;;;;;1.50;1.30;;;7.50;98.20;;;;;;5076318;28;20477;-81
2023/04/25 04:45:10;;;;;;;1.50;1.20;;;7.50;98.20;;;;;;5091176;28;20476;-80
2023/04/25 04:47:40;;;;;;;1.50;1.20;;;7.50;98.20;;;;;;5077641;28;20907;-81
2023/04/25 04:50:08;;;;;;;1.57;1.30;;;7.40;98.20;;;;;;5095519;28;20456;-80
2023/04/25 04:52:35;;;;;;;1.50;1.20;;;7.40;98.20;;;;;;5080461;28;20489;-81
2023/04/25 04:55:02;;;;;;;1.50;1.20;;;7.40;98.20;;;;;;5089089;28;20480;-81
2023/04/25 04:57:30;;;;;;;1.50;1.20;;;7.40;98.20;;;;;;5079496;28;20496;-81
2023/04/25 04:59:57;;;;;;;1.50;1.20;;;7.40;98.20;;;;;;5092278;28;20556;-81
2023/04/25 05:02:25;;;;;;;1.50;1.30;;;7.40;98.20;;;;;;5077441;28;20925;-81
2023/04/25 05:04:54;;;;;;;1.50;1.30;;;7.40;98.20;;;;;;5091461;28;20985;-83
2023/04/25 05:07:20;;;;;;;1.50;1.20;;;7.40;98.20;;;;;;5076664;28;20580;-82
2023/04/25 05:09:47;;;;;;;1.50;1.20;;;7.40;98.20;;;;;;5088832;28;20457;-81
2023/04/25 05:12:14;;;;;;;1.50;1.30;;;7.40;98.20;;;;;;5073180;28;20626;-81
2023/04/25 05:14:41;;;;;;;1.50;1.33;;;7.40;98.20;;;;;;5089950;28;20546;-81
2023/04/25 05:17:08;;;;;;;1.50;1.20;;;7.40;98.20;;;;;;5086417;28;20553;-80
2023/04/25 05:19:35;;;;;;;1.50;1.20;;;7.50;98.20;;;;;;5093239;28;20461;-81
2023/04/25 05:22:03;;;;;;;1.50;1.20;;;7.50;98.20;;;;;;5086390;28;20484;-81
2023/04/25 05:24:31;;;;;;;1.50;1.20;;;7.60;98.20;;;;;;5096527;28;20498;-81
2023/04/25 05:26:58;;;;;;;1.50;1.20;;;7.60;98.20;;;;;;5079195;28;20485;-83
2023/04/25 05:29:25;;;;;;;1.50;1.20;;;7.70;98.20;;;;;;5091141;28;20461;-81
2023/04/25 05:31:52;;;;;;;1.50;1.20;;;7.80;98.20;;;;;;5083039;28;20488;-81
2023/04/25 05:34:19;;;;;;;1.50;1.20;;;7.90;98.20;;;;;;5094314;28;20463;-81
2023/04/25 05:36:48;;;;;;;1.50;1.17;;;8.00;98.20;;;;;;5092747;28;20620;-81
2023/04/25 05:39:17;;;;;;;1.57;1.30;;;8.20;98.20;;;;;;5088923;28;21085;-81
2023/04/25 05:41:44;;;;;;;1.50;1.20;;;8.30;98.20;;;;;;5077015;28;20489;-82
2023/04/25 05:44:10;;;;;;;1.50;1.13;;;8.40;98.20;;;;;;5086309;28;20461;-82
2023/04/25 05:46:37;;;;;;;1.50;1.20;;;8.50;98.20;;;;;;5071300;28;20535;-82
2023/04/25 05:49:04;;;;;;;1.60;1.30;;;8.60;98.20;;;;;;5084742;28;20461;-81
2023/04/25 05:51:31;;;;;;;1.53;1.20;;;8.60;98.20;;;;;;5080247;28;20497;-82
2023/04/25 05:53:58;;;;;;;1.50;1.10;;;8.70;98.20;;;;;;5090057;28;20458;-81
2023/04/25 05:56:26;;;;;;;1.50;1.17;;;8.80;98.20;;;;;;5079414;28;21073;-81
2023/04/25 05:58:53;;;;;;;1.53;1.17;;;8.90;98.20;;;;;;5091291;28;20528;-81
2023/04/25 06:01:20;;;;;;;1.50;1.20;;;9.00;98.20;;;;;;5081679;28;20483;-82
2023/04/25 06:03:47;;;;;;;1.50;1.10;;;9.10;98.20;;;;;;5088775;28;20481;-83
2023/04/25 06:06:13;;;;;;;1.53;1.20;;;9.40;98.20;;;;;;5076915;28;20961;-82
2023/04/25 06:08:41;;;;;;;1.53;1.10;;;9.50;98.20;;;;;;5083789;28;20479;-82
2023/04/25 06:11:07;;;;;;;1.50;1.23;;;9.70;98.20;;;;;;5071660;28;21043;-81
2023/04/25 06:13:35;;;;;;;1.60;1.20;;;9.80;98.20;;;;;;5079506;28;20489;-81
2023/04/25 06:16:02;;;;;;;1.50;1.20;;;9.80;98.20;;;;;;5071247;28;20489;-82
2023/04/25 06:18:29;;;;;;;1.50;1.10;;;9.80;98.20;;;;;;5080362;28;20462;-81
2023/04/25 06:20:56;;;;;;;1.53;1.20;;;9.80;98.20;;;;;;5077061;28;20871;-82
2023/04/25 06:23:23;;;;;;;1.50;1.10;;;9.70;98.20;;;;;;5086187;28;20467;-82
2023/04/25 06:25:50;;;;;;;1.50;1.20;;;9.60;98.20;;;;;;5081141;28;20600;-81
2023/04/25 06:28:16;;;;;;;1.50;1.10;;;9.60;98.20;;;;;;5091485;28;20467;-81
2023/04/25 06:30:44;;;;;;;1.50;1.10;;;9.60;98.20;;;;;;5091749;28;20453;-82
2023/04/25 06:33:11;;;;;;;1.50;1.10;;;9.50;98.20;;;;;;5065942;28;20470;-82
2023/04/25 06:35:38;;;;;;;1.53;1.20;;;9.50;98.20;;;;;;5096136;28;20969;-82
2023/04/25 06:38:05;;;;;;;1.50;1.10;;;9.40;98.20;;;;;;5090384;28;20489;-82
2023/04/25 06:40:32;;;;;;;1.50;1.13;;;9.50;98.20;;;;;;5094134;28;20986;-82
2023/04/25 06:42:58;;;;;;;1.50;1.13;;;9.60;98.20;;;;;;5090458;28;20621;-82
2023/04/25 06:45:25;;;;;;;1.50;1.20;;;9.70;98.20;;;;;;5095550;28;20483;-82
2023/04/25 06:47:53;;;;;;;1.50;1.10;;;9.80;98.20;;;;;;5087938;28;20559;-82
2023/04/25 06:50:20;;;;;;;1.50;1.00;;;9.90;98.20;;;;;;5084407;28;20494;-82
2023/04/25 06:52:47;;;;;;;1.50;1.20;;;10.00;98.20;;;;;;5071031;28;20541;-81
2023/04/25 06:55:14;;;;;;;1.50;1.20;;;10.10;98.20;;;;;;5081258;28;20893;-82
2023/04/25 06:57:41;;;;;;;1.50;1.20;;;10.20;98.20;;;;;;5072623;28;20483;-81
2023/04/25 07:00:09;;;;;;;1.50;1.20;;;10.30;98.20;;;;;;5078889;28;20764;-80
2023/04/25 07:02:36;;;;;;;1.50;1.20;;;10.40;98.20;;;;;;5076424;28;20485;-80
2023/04/25 07:05:05;;;;;;;1.50;1.10;;;10.50;98.20;;;;;;5086885;28;20481;-81
2023/04/25 07:07:32;;;;;;;1.50;1.10;;;10.40;98.20;;;;;;5075479;28;20546;-79
2023/04/25 07:09:58;;;;;;;1.50;1.00;;;10.30;98.20;;;;;;5090092;28;20989;-80
2023/04/25 07:12:25;;;;;;;1.50;1.13;;;10.30;98.20;;;;;;5084368;28;20610;-81
2023/04/25 07:14:52;;;;;;;1.50;1.10;;;10.40;98.20;;;;;;5090105;28;20516;-81
2023/04/25 07:17:19;;;;;;;1.50;1.20;;;10.50;98.20;;;;;;5078493;28;22090;-81
2023/04/25 07:19:46;;;;;;;1.50;1.00;;;10.50;98.20;;;;;;5083541;28;20839;-81
2023/04/25 07:22:14;;;;;;;1.50;1.10;;;10.50;98.20;;;;;;5074434;28;20552;-80
2023/04/25 07:24:41;;;;;;;1.50;1.17;;;10.50;98.20;;;;;;5090379;28;20480;-78
2023/04/25 07:27:08;;;;;;;1.50;1.10;;;10.60;98.20;;;;;;5071154;28;20962;-79
2023/04/25 07:29:36;;;;;;;1.50;1.10;;;10.70;98.20;;;;;;5079735;28;20456;-79
2023/04/25 07:32:04;;;;;;;1.50;1.10;;;10.70;98.20;;;;;;5062052;28;20600;-80
2023/04/25 07:34:31;;;;;;;1.50;1.20;;;10.80;98.20;;;;;;5077067;28;20541;-79
2023/04/25 07:36:59;;;;;;;1.50;1.10;;;10.80;98.20;;;;;;5073515;28;20517;-80
2023/04/25 07:39:27;;;;;;;1.50;1.07;;;10.80;98.20;;;;;;5077180;28;20464;-80
2023/04/25 07:41:54;;;;;;;1.50;1.03;;;10.90;98.20;;;;;;5069587;28;20629;-79
2023/04/25 07:44:21;;;;;;;1.50;1.10;;;11.00;98.20;;;;;;5079310;28;20471;-81
2023/04/25 07:46:48;;;;;;;1.50;1.00;;;11.00;98.20;;;;;;5078455;28;20479;-79
2023/04/25 07:49:15;;;;;;;1.50;1.03;;;11.10;98.20;;;;;;5086393;28;20472;-80
2023/04/25 07:51:43;;;;;;;1.50;1.00;;;11.10;98.20;;;;;;5078216;28;20481;-80
2023/04/25 07:54:09;;;;;;;1.50;1.10;;;11.00;98.20;;;;;;5092192;28;20465;-80
2023/04/25 07:56:38;;;;;;;1.50;1.00;;;10.90;98.20;;;;;;5078610;28;20544;-79
2023/04/25 07:59:05;;;;;;;1.50;1.20;;;10.70;98.20;;;;;;5096183;28;20456;-80
2023/04/25 08:01:31;;;;;;;1.50;1.20;;;10.80;98.20;;;;;;5089799;28;20475;-80
2023/04/25 08:03:58;;;;;;;1.50;1.10;;;10.90;98.20;;;;;;5104345;28;20997;-80
2023/04/25 08:06:25;;;;;;;1.43;1.00;;;11.00;98.20;;;;;;5093968;28;20484;-80
2023/04/25 08:08:52;;;;;;;1.50;1.00;;;11.00;98.20;;;;;;5100845;28;20452;-80
2023/04/25 08:11:18;;;;;;;1.50;1.20;;;11.00;98.20;;;;;;5089437;28;20981;-80
2023/04/25 08:13:47;;;;;;;1.50;1.00;;;11.00;98.20;;;;;;5097277;28;20461;-79
2023/04/25 08:16:13;;;;;;;1.50;1.00;;;10.80;98.20;;;;;;5091191;28;20480;-79
2023/04/25 08:18:40;;;;;;;1.50;1.00;;;10.70;97.80;;;;;;5104717;28;20460;-78
2023/04/25 08:21:08;;;;;;;1.50;1.00;;;10.70;98.20;;;;;;5095030;28;20474;-80
2023/04/25 08:23:35;;;;;;;1.50;1.10;;;10.70;98.20;;;;;;5114057;28;20456;-79
2023/04/25 08:26:02;;;;;;;1.50;1.00;;;10.70;98.20;;;;;;5093790;28;20602;-78
2023/04/25 08:28:28;;;;;;;1.43;1.00;;;10.70;98.20;;;;;;5103998;28;20470;-80
2023/04/25 08:30:57;;;;;;;1.50;1.13;;;10.70;97.10;;;;;;5093971;28;20967;-80
2023/04/25 08:33:24;;;;;;;1.50;1.03;;;10.60;98.00;;;;;;5105975;28;21500;-81
2023/04/25 08:35:50;;;;;;;1.43;1.00;;;10.60;97.70;;;;;;5090788;28;20515;-80
2023/04/25 08:38:18;;;;;;;1.50;1.00;;;10.60;97.70;;;;;;5105405;28;20448;-80
2023/04/25 08:40:45;;;;;;;1.50;1.10;;;10.70;98.20;;;;;;5102116;28;20463;-79
2023/04/25 08:43:14;;;;;;;1.50;1.00;;;11.10;98.20;;;;;;5074475;28;20484;-80
2023/04/25 08:45:43;;;;;;;1.50;1.00;;;11.50;96.50;;;;;;5099923;28;20504;-80
2023/04/25 08:48:13;;;;;;;1.50;1.00;;;11.90;94.30;;;;;;5093691;28;20551;-80
2023/04/25 08:50:42;;;;;;;1.50;1.00;;;12.40;95.20;;;;;;5097709;28;20755;-80
2023/04/25 08:53:16;;;;;;;1.50;1.00;;;12.70;93.20;;;;;;5099206;28;20469;-79
2023/04/25 08:55:43;;;;;;;1.50;1.00;;;13.00;90.50;;;;;;5096990;28;20912;-79
2023/04/25 08:58:11;;;;;;;1.50;1.00;;;13.20;90.00;;;;;;5093324;28;20492;-79
2023/04/25 09:00:38;;;;;;;1.50;1.00;;;13.40;90.10;;;;;;5103804;28;20459;-79
2023/04/25 09:03:05;;;;;;;1.50;1.00;;;13.60;87.60;;;;;;5094981;28;20486;-80
2023/04/25 09:05:34;;;;;;;1.50;1.00;;;13.80;85.80;;;;;;5099587;28;20468;-80
2023/04/25 09:08:01;;;;;;;1.50;1.10;;;13.80;86.50;;;;;;5101582;28;20487;-79
2023/04/25 09:10:29;;;;;;;1.50;1.00;;;13.60;87.50;;;;;;5103757;28;20512;-80
2023/04/25 09:13:08;;;;;;;1.50;1.00;;;13.40;87.20;;;;;;5087661;28;21031;-80
2023/04/25 09:15:48;;;;;;;1.50;1.00;;;13.20;88.20;;;;;;5093869;28;21003;-79
2023/04/25 09:18:22;;;;;;;1.50;1.00;;;13.00;87.90;;;;;;5079761;28;20738;-79
2023/04/25 09:20:50;;;;;;;1.47;1.00;;;12.90;88.00;;;;;;5092489;28;20457;-80
2023/04/25 09:23:20;;;;;;;1.50;1.00;;;13.00;89.80;;;;;;5109376;28;20477;-79
2023/04/25 09:25:48;;;;;;;1.50;1.00;;;13.30;88.00;;;;;;5097267;28;20507;-79
2023/04/25 09:28:15;;;;;;;1.50;1.00;;;13.60;85.50;;;;;;5105968;28;20807;-79
2023/04/25 09:30:42;;;;;;;1.47;1.00;;;13.60;83.60;;;;;;5102767;28;20460;-79
2023/04/25 09:33:11;;;;;;;1.50;1.00;;;13.50;83.50;;;;;;5086749;28;20481;-79
2023/04/25 09:35:40;;;;;;;1.50;1.10;;;13.30;81.80;;;;;;5100741;28;20487;-79
2023/04/25 09:38:13;;;;;;;1.50;0.90;;;13.10;83.00;;;;;;5086637;28;20472;-78
2023/04/25 09:40:43;;;;;;;1.47;0.90;;;13.00;82.90;;;;;;5093707;28;20572;-78
2023/04/25 09:43:11;;;;;;;1.43;1.00;;;12.90;84.70;;;;;;5089664;28;20481;-79
2023/04/25 09:45:47;;;;;;;1.47;1.00;;;12.90;84.40;;;;;;5101675;28;20505;-78
2023/04/25 09:48:19;;;;;;;1.47;0.90;;;12.90;84.60;;;;;;5074409;28;20956;-78
2023/04/25 09:50:46;;;;;;;1.50;1.00;;;12.90;86.30;;;;;;5093004;28;20832;-79
2023/04/25 09:53:14;;;;;;;1.50;1.00;;;13.10;85.10;;;;;;5068538;28;20496;-77
2023/04/25 09:55:43;;;;;;;1.47;0.90;;;13.20;86.10;;;;;;5092490;28;20980;-78
2023/04/25 09:58:13;;;;;;;1.50;1.00;;;13.40;85.30;;;;;;5091118;28;20491;-77
2023/04/25 10:00:42;;;;;;;1.47;0.90;;;13.70;85.20;;;;;;5094010;28;20465;-78
2023/04/25 10:03:09;;;;;;;1.50;1.00;;;14.10;86.50;;;;;;5090931;28;20476;-77
2023/04/25 10:05:37;;;;;;;1.47;1.00;;;14.40;82.90;;;;;;5095365;28;20559;-78
2023/04/25 10:08:05;;;;;;;1.50;0.90;;;14.70;81.80;;;;;;5084166;28;20468;-78
2023/04/25 10:10:36;;;;;;;1.50;0.90;;;14.80;79.80;;;;;;5096997;28;20977;-77
2023/04/25 10:13:05;;;;;;;1.47;0.90;;;14.50;80.50;;;;;;5089927;28;20839;-77
2023/04/25 10:15:35;;;;;;;1.50;1.00;;;14.40;82.20;;;;;;5098560;28;21003;-77
2023/04/25 10:18:02;;;;;;;1.50;1.00;;;14.10;82.10;;;;;;5087527;28;20510;-78
2023/04/25 10:20:29;;;;;;;1.40;1.00;;;13.90;82.90;;;;;;5093993;28;20461;-77
2023/04/25 10:23:03;;;;;;;1.50;1.00;;;13.50;82.60;;;;;;5087078;28;20472;-77
2023/04/25 10:25:30;;;;;;;2.70;2.50;;;13.20;83.30;;;;;;5092842;28;20485;-77
2023/04/25 10:28:21;;;;;;;1.50;1.00;;;13.00;83.10;;;;;;5089872;28;20491;-78
2023/04/25 10:31:01;;;;;;;1.50;1.10;;;12.90;83.90;;;;;;5081168;28;20555;-76
2023/04/25 10:33:34;;;;;;;1.43;1.00;;;12.90;84.10;;;;;;5099037;28;20841;-78
2023/04/25 10:36:10;;;;;;;1.47;1.00;;;13.00;82.80;;;;;;5088924;28;21001;-77
2023/04/25 10:38:37;;;;;;;1.50;1.00;;;13.40;85.60;;;;;;5102710;28;20462;-76
2023/04/25 10:41:06;;;;;;;1.47;0.97;;;13.60;84.00;;;;;;5081556;28;20506;-77
2023/04/25 10:43:39;;;;;;;1.40;0.97;;;14.10;82.90;;;;;;5100287;28;20487;-77
2023/04/25 10:46:20;;;;;;;1.43;0.90;;;14.80;81.80;;;;;;5076921;28;20483;-78
2023/04/25 10:48:52;;;;;;;1.50;0.90;;;15.30;81.50;;;;;;5098412;28;20496;-79
2023/04/25 10:51:21;;;;;;;1.50;1.00;;;15.40;77.50;;;;;;5087162;28;20863;-77
2023/04/25 10:53:57;;;;;;;1.50;0.90;;;15.10;77.30;;;;;;5096951;28;20452;-77
2023/04/25 10:56:27;;;;;;;1.47;0.90;;;14.70;79.30;;;;;;5086349;28;20480;-79
2023/04/25 10:59:05;;;;;;;1.50;1.00;;;14.50;80.10;;;;;;5100150;28;20460;-77
2023/04/25 11:01:37;;;;;;;1.50;1.00;;;14.50;79.80;;;;;;5086916;28;20765;-77
2023/04/25 11:04:04;;;;;;;1.50;1.00;;;14.60;81.80;;;;;;5097385;28;20560;-78
2023/04/25 11:06:41;;;;;;;1.47;1.00;;;14.80;79.50;;;;;;5086765;28;20481;-79
2023/04/25 11:09:13;;;;;;;1.50;1.00;;;14.80;80.00;;;;;;5091001;28;20472;-78
2023/04/25 11:11:40;;;;;;;1.40;0.90;;;14.80;79.10;;;;;;5086541;28;20487;-77
2023/04/25 11:14:08;;;;;;;1.43;0.90;;;14.60;78.90;;;;;;5091596;28;20453;-77
2023/04/25 11:16:36;;;;;;;1.50;1.00;;;14.50;80.40;;;;;;5088390;28;20879;-77
2023/04/25 11:19:03;;;;;;;1.50;0.90;;;14.60;78.40;;;;;;5102428;28;20534;-79
2023/04/25 11:21:31;;;;;;;1.43;1.00;;;14.50;77.50;;;;;;5090089;28;20492;-78
2023/04/25 11:24:01;;;;;;;1.47;0.90;;;14.50;76.90;;;;;;5101905;28;20502;-78
2023/04/25 11:26:28;;;;;;;1.40;0.90;;;14.50;77.40;;;;;;5086794;28;20511;-77
2023/04/25 11:28:59;;;;;;;1.93;1.37;;;14.40;76.70;;;;;;5095014;28;20457;-77
2023/04/25 11:31:28;;;;;;;1.47;1.00;;;14.60;77.30;;;;;;5088209;28;20480;-78
2023/04/25 11:33:55;;;;;;;1.50;0.90;;;14.90;75.30;;;;;;5099707;28;20448;-77
2023/04/25 11:36:25;;;;;;;1.47;0.90;;;15.20;76.70;;;;;;5083388;28;20484;-77
2023/04/25 11:38:52;;;;;;;1.47;0.90;;;15.60;76.80;;;;;;5084710;28;20460;-78
2023/04/25 11:41:20;;;;;;;1.50;0.90;;;16.00;73.40;;;;;;5081527;28;20483;-77
2023/04/25 11:43:47;;;;;;;1.50;0.90;;;16.30;72.70;;;;;;5096030;28;20552;-77
2023/04/25 11:46:13;;;;;;;1.50;0.90;;;16.50;72.60;;;;;;5080785;28;20488;-77
2023/04/25 11:48:43;;;;;;;1.40;0.90;;;16.80;73.10;;;;;;5094237;28;20468;-79
2023/04/25 11:51:10;;;;;;;1.50;0.90;;;17.10;72.10;;;;;;5088380;28;20510;-77
2023/04/25 11:53:37;;;;;;;2.93;2.73;;;17.00;71.90;;;;;;5096727;28;20465;-79
2023/04/25 11:56:11;;;;;;;1.47;0.90;;;16.80;71.70;;;;;;5090987;28;20543;-78
2023/04/25 11:58:56;;;;;;;1.47;0.90;;;16.40;71.90;;;;;;5100119;28;20546;-78
2023/04/25 12:01:27;;;;;;;1.50;1.20;;;16.20;72.50;;;;;;5083802;28;20476;-77
2023/04/25 12:03:55;;;;;;;1.47;0.90;;;16.10;74.00;;;;;;5104288;28;20480;-79
2023/04/25 12:06:26;;;;;;;1.47;0.90;;;15.90;71.90;;;;;;5088617;28;20484;-79
2023/04/25 12:09:04;;;;;;;1.50;0.97;;;15.70;72.20;;;;;;5094519;28;20885;-77
2023/04/25 12:11:32;;;;;;;1.40;0.90;;;15.30;71.30;;;;;;5082586;28;21034;-76
2023/04/25 12:14:04;;;;;;;1.50;1.00;;;15.00;72.90;;;;;;5101247;28;20465;-78
2023/04/25 12:16:40;;;;;;;1.50;1.00;;;14.60;73.70;;;;;;5086700;28;20480;-78
2023/04/25 12:19:08;;;;;;;1.43;0.90;;;14.20;75.00;;;;;;5089280;28;20452;-78
2023/04/25 12:21:35;;;;;;;1.50;0.97;;;14.00;75.80;;;;;;5080366;28;20482;-77
2023/04/25 12:24:12;;;;;;;1.50;1.00;;;13.80;76.70;;;;;;5089667;28;20489;-77
2023/04/25 12:26:50;;;;;;;1.47;1.00;;;13.60;77.00;;;;;;5082805;28;20857;-77
2023/04/25 12:29:18;;;;;;;1.47;0.90;;;13.40;78.20;;;;;;5094230;28;20457;-76
2023/04/25 12:31:45;;;;;;;1.50;1.10;;;13.30;78.70;;;;;;5080183;28;20488;-78
2023/04/25 12:34:14;;;;;;;1.50;1.00;;;13.10;80.40;;;;;;5098418;28;20461;-78
2023/04/25 12:36:41;;;;;;;1.50;0.90;;;13.10;81.60;;;;;;5083228;28;20481;-78
2023/04/25 12:39:08;;;;;;;1.50;1.00;;;13.10;81.90;;;;;;5099640;28;20988;-77
2023/04/25 12:41:34;;;;;;;1.50;1.00;;;13.10;82.60;;;;;;5082847;28;20494;-78
2023/04/25 12:44:01;;;;;;;1.50;0.90;;;13.20;81.50;;;;;;5099201;28;20484;-78
2023/04/25 12:46:28;;;;;;;1.47;0.90;;;13.40;81.80;;;;;;5085130;28;20843;-77
2023/04/25 12:48:56;;;;;;;1.50;1.00;;;13.50;81.10;;;;;;5100617;28;20953;-78
2023/04/25 12:51:25;;;;;;;1.47;1.00;;;13.70;80.90;;;;;;5084179;28;20491;-77
2023/04/25 12:53:52;;;;;;;1.47;0.90;;;13.90;80.00;;;;;;5095459;28;20457;-78
2023/04/25 12:56:19;;;;;;;1.50;1.13;;;14.10;79.70;;;;;;5083836;28;20488;-78